createdAt,value
2023-04-09T00:00:15.779Z,60.16
2023-04-09T00:02:42.614Z,60.59
2023-04-09T00:05:09.212Z,60.57
2023-04-09T00:07:35.646Z,60.71
2023-04-09T00:10:02.241Z,60.62
2023-04-09T00:12:30.249Z,60.44
2023-04-09T00:14:57.375Z,59.97
2023-04-09T00:17:23.778Z,60.11
2023-04-09T00:19:50.213Z,60.19
2023-04-09T00:22:16.843Z,60.34
2023-04-09T00:24:43.234Z,60.07
2023-04-09T00:27:09.597Z,60.75
2023-04-09T00:29:35.940Z,60.27
2023-04-09T00:32:02.482Z,61.01
2023-04-09T00:34:29.022Z,60.87
2023-04-09T00:36:55.679Z,61.21
2023-04-09T00:39:22.076Z,61.07
2023-04-09T00:41:48.522Z,61.17
2023-04-09T00:44:15.108Z,60.73
2023-04-09T00:46:41.668Z,60.79
2023-04-09T00:49:08.035Z,61.21
2023-04-09T00:51:35.793Z,61.44
2023-04-09T00:54:02.242Z,61.81
2023-04-09T00:56:29.840Z,61.46
2023-04-09T00:58:56.284Z,61.68
2023-04-09T01:01:22.760Z,61.49
2023-04-09T01:03:49.354Z,61.89
2023-04-09T01:06:27.830Z,61.39
2023-04-09T01:09:08.799Z,61.84
2023-04-09T01:11:44.918Z,61.88
2023-04-09T01:14:37.779Z,61.82
2023-04-09T01:17:15.398Z,61.68
2023-04-09T01:19:51.139Z,62.03
2023-04-09T01:22:31.611Z,61.79
2023-04-09T01:25:24.126Z,61.17
2023-04-09T01:28:18.173Z,61.86
2023-04-09T01:30:49.088Z,62.06
2023-04-09T01:33:17.558Z,61.88
2023-04-09T01:35:46.323Z,61.85
2023-04-09T01:38:14.241Z,62.08
2023-04-09T01:40:40.823Z,61.48
2023-04-09T01:43:08.697Z,61.64
2023-04-09T01:45:34.995Z,61.64
2023-04-09T01:48:03.313Z,61.58
2023-04-09T01:50:29.813Z,61.45
2023-04-09T01:52:56.745Z,61.33
2023-04-09T01:55:23.164Z,61.77
2023-04-09T01:57:49.592Z,61.94
2023-04-09T02:00:16.502Z,62.01
2023-04-09T02:02:53.331Z,62.08
2023-04-09T02:05:23.114Z,61.33
2023-04-09T02:07:55.840Z,61.75
2023-04-09T02:10:27.038Z,61.49
2023-04-09T02:12:54.904Z,61.86
2023-04-09T02:15:22.223Z,62.35
2023-04-09T02:17:48.717Z,62.65
2023-04-09T02:20:19.173Z,62.95
2023-04-09T02:22:46.580Z,62.96
2023-04-09T02:25:13.037Z,63.35
2023-04-09T02:27:39.584Z,63.38
2023-04-09T02:30:06.620Z,63.70
2023-04-09T02:32:33.096Z,63.68
2023-04-09T02:34:59.590Z,64.25
2023-04-09T02:37:26.111Z,64.19
2023-04-09T02:39:52.653Z,63.91
2023-04-09T02:42:19.100Z,64.31
2023-04-09T02:44:45.477Z,64.92
2023-04-09T02:47:11.913Z,65.16
2023-04-09T02:49:38.394Z,64.77
2023-04-09T02:52:04.931Z,64.84
2023-04-09T02:54:31.390Z,64.76
2023-04-09T02:56:57.894Z,64.65
2023-04-09T02:59:24.333Z,64.81
2023-04-09T03:01:50.843Z,65.34
2023-04-09T03:04:17.309Z,65.09
2023-04-09T03:06:43.996Z,65.10
2023-04-09T03:09:10.437Z,64.94
2023-04-09T03:11:36.809Z,64.92
2023-04-09T03:14:03.228Z,64.83
2023-04-09T03:16:29.826Z,64.21
2023-04-09T03:18:56.196Z,65.19
2023-04-09T03:21:22.646Z,64.75
2023-04-09T03:23:49.049Z,64.75
2023-04-09T03:26:15.440Z,64.54
2023-04-09T03:28:41.811Z,65.15
2023-04-09T03:31:08.240Z,65.15
2023-04-09T03:33:34.692Z,65.01
2023-04-09T03:36:01.186Z,65.18
2023-04-09T03:38:27.623Z,65.14
2023-04-09T03:40:53.990Z,65.22
2023-04-09T03:43:20.426Z,65.68
2023-04-09T03:45:46.834Z,65.37
2023-04-09T03:48:13.223Z,65.47
2023-04-09T03:50:40.827Z,65.51
2023-04-09T03:53:07.509Z,65.36
2023-04-09T03:55:34.212Z,65.07
2023-04-09T03:58:00.898Z,64.99
2023-04-09T04:00:27.393Z,65.44
2023-04-09T04:02:53.887Z,65.70
2023-04-09T04:05:24.179Z,65.17
2023-04-09T04:07:50.538Z,65.32
2023-04-09T04:10:16.984Z,65.23
2023-04-09T04:12:43.351Z,64.67
2023-04-09T04:15:10.119Z,64.85
2023-04-09T04:17:36.506Z,64.99
2023-04-09T04:20:03.097Z,65.07
2023-04-09T04:22:29.552Z,65.03
2023-04-09T04:24:56.098Z,64.84
2023-04-09T04:27:22.477Z,65.16
2023-04-09T04:29:48.863Z,64.74
2023-04-09T04:32:15.433Z,64.87
2023-04-09T04:34:41.852Z,65.08
2023-04-09T04:37:08.628Z,65.38
2023-04-09T04:39:35.012Z,64.79
2023-04-09T04:42:01.466Z,65.13
2023-04-09T04:44:27.998Z,65.23
2023-04-09T04:46:54.444Z,64.47
2023-04-09T04:49:20.827Z,64.66
2023-04-09T04:51:47.294Z,65.16
2023-04-09T04:54:13.783Z,65.44
2023-04-09T04:56:40.303Z,65.42
2023-04-09T04:59:06.843Z,65.52
2023-04-09T05:01:33.413Z,65.53
2023-04-09T05:04:00.242Z,65.18
2023-04-09T05:06:28.001Z,65.22
2023-04-09T05:08:57.951Z,65.47
2023-04-09T05:11:25.388Z,65.26
2023-04-09T05:13:51.887Z,65.77
2023-04-09T05:16:19.630Z,65.19
2023-04-09T05:18:46.593Z,65.57
2023-04-09T05:21:13.224Z,65.55
2023-04-09T05:23:39.633Z,64.83
2023-04-09T05:26:06.022Z,65.33
2023-04-09T05:28:32.907Z,65.01
2023-04-09T05:30:59.683Z,65.04
2023-04-09T05:33:26.271Z,64.08
2023-04-09T05:35:52.750Z,64.11
2023-04-09T05:38:19.176Z,64.36
2023-04-09T05:40:45.806Z,64.13
2023-04-09T05:43:12.252Z,63.60
2023-04-09T05:45:38.901Z,63.78
2023-04-09T05:48:05.895Z,63.77
2023-04-09T05:50:38.181Z,63.68
2023-04-09T05:53:14.147Z,63.18
2023-04-09T05:55:40.580Z,62.92
2023-04-09T05:58:06.977Z,63.32
2023-04-09T06:00:33.617Z,62.75
2023-04-09T06:03:00.151Z,62.54
2023-04-09T06:05:26.698Z,61.98
2023-04-09T06:07:53.047Z,61.33
2023-04-09T06:10:19.510Z,61.38
2023-04-09T06:12:45.957Z,60.43
2023-04-09T06:15:12.280Z,59.49
2023-04-09T06:17:38.802Z,57.79
2023-04-09T06:20:06.214Z,57.17
2023-04-09T06:22:32.682Z,56.73
2023-04-09T06:24:59.829Z,55.60
2023-04-09T06:27:26.579Z,55.50
2023-04-09T06:29:53.022Z,55.01
2023-04-09T06:32:19.402Z,54.43
2023-04-09T06:34:45.867Z,54.55
2023-04-09T06:37:12.532Z,53.29
2023-04-09T06:39:44.815Z,53.61
2023-04-09T06:42:20.636Z,54.79
2023-04-09T06:44:47.523Z,53.92
2023-04-09T06:47:13.876Z,53.33
2023-04-09T06:49:40.396Z,52.90
2023-04-09T06:52:07.352Z,52.64
2023-04-09T06:54:33.766Z,52.61
2023-04-09T06:57:00.206Z,50.95
2023-04-09T06:59:26.709Z,51.15
2023-04-09T07:01:54.661Z,51.28
2023-04-09T07:04:21.562Z,51.66
2023-04-09T07:06:48.042Z,52.70
2023-04-09T07:09:15.348Z,50.78
2023-04-09T07:11:41.836Z,49.60
2023-04-09T07:14:08.231Z,45.76
2023-04-09T07:16:34.718Z,44.93
2023-04-09T07:19:01.429Z,43.43
2023-04-09T07:21:28.263Z,42.93
2023-04-09T07:23:54.996Z,40.89
2023-04-09T07:26:21.689Z,38.77
2023-04-09T07:28:48.097Z,38.07
2023-04-09T07:31:14.467Z,37.27
2023-04-09T07:33:40.900Z,37.24
2023-04-09T07:36:07.298Z,36.27
2023-04-09T07:38:34.784Z,35.13
2023-04-09T07:41:01.396Z,34.75
2023-04-09T07:43:27.921Z,34.90
2023-04-09T07:45:54.536Z,34.52
2023-04-09T07:48:21.185Z,33.56
2023-04-09T07:50:48.261Z,32.28
2023-04-09T07:53:14.699Z,32.41
2023-04-09T07:55:41.328Z,32.50
2023-04-09T07:58:07.687Z,32.06
2023-04-09T08:00:34.130Z,31.94
2023-04-09T08:03:01.810Z,31.93
2023-04-09T08:05:28.882Z,32.24
2023-04-09T08:07:55.414Z,32.88
2023-04-09T08:10:22.070Z,33.42
2023-04-09T08:12:49.192Z,32.66
2023-04-09T08:15:16.009Z,36.06
2023-04-09T08:17:42.453Z,37.21
2023-04-09T08:20:09.346Z,38.96
2023-04-09T08:22:35.797Z,40.75
2023-04-09T08:25:02.891Z,42.07
2023-04-09T08:27:29.594Z,43.56
2023-04-09T08:29:56.065Z,43.82
2023-04-09T08:32:22.644Z,42.50
2023-04-09T08:34:49.214Z,43.50
2023-04-09T08:37:16.693Z,43.87
2023-04-09T08:39:43.096Z,47.06
2023-04-09T08:42:12.476Z,47.32
2023-04-09T08:44:38.955Z,47.82
2023-04-09T08:47:10.132Z,47.07
2023-04-09T08:49:36.651Z,47.34
2023-04-09T08:52:03.442Z,46.22
2023-04-09T08:54:30.059Z,46.09
2023-04-09T08:56:57.547Z,46.19
2023-04-09T08:59:23.980Z,45.08
2023-04-09T09:02:06.832Z,43.97
2023-04-09T09:04:47.792Z,44.89
2023-04-09T09:07:15.555Z,45.81
2023-04-09T09:09:59.216Z,45.71
2023-04-09T09:12:41.093Z,44.14
2023-04-09T09:15:27.770Z,42.86
2023-04-09T09:17:59.205Z,42.55
2023-04-09T09:20:27.168Z,41.37
2023-04-09T09:22:56.517Z,40.49
2023-04-09T09:25:24.792Z,40.32
2023-04-09T09:27:52.270Z,38.56
2023-04-09T09:30:27.167Z,38.68
2023-04-09T09:32:55.352Z,38.05
2023-04-09T09:35:22.288Z,39.04
2023-04-09T09:38:01.211Z,39.87
2023-04-09T09:40:28.757Z,40.00
2023-04-09T09:42:56.993Z,40.36
2023-04-09T09:45:24.437Z,40.03
2023-04-09T09:47:52.891Z,39.29
2023-04-09T09:50:24.026Z,38.37
2023-04-09T09:52:53.207Z,37.83
2023-04-09T09:55:23.128Z,35.54
2023-04-09T09:57:51.591Z,34.91
2023-04-09T10:00:19.399Z,35.79
2023-04-09T10:02:56.639Z,35.90
2023-04-09T10:05:26.785Z,34.54
2023-04-09T10:07:57.865Z,32.98
2023-04-09T10:10:25.939Z,32.96
2023-04-09T10:12:52.711Z,34.81
2023-04-09T10:15:19.781Z,35.83
2023-04-09T10:17:46.620Z,35.98
2023-04-09T10:20:22.803Z,36.13
2023-04-09T10:22:51.748Z,39.21
2023-04-09T10:25:18.416Z,42.21
2023-04-09T10:27:46.181Z,43.50
2023-04-09T10:30:35.671Z,42.47
2023-04-09T10:33:10.204Z,41.59
2023-04-09T10:35:37.172Z,40.72
2023-04-09T10:38:03.629Z,38.87
2023-04-09T10:40:30.258Z,38.74
2023-04-09T10:42:58.184Z,39.35
2023-04-09T10:45:26.217Z,39.32
2023-04-09T10:47:53.549Z,36.92
2023-04-09T10:50:32.612Z,35.99
2023-04-09T10:53:00.607Z,34.21
2023-04-09T10:55:38.097Z,33.66
2023-04-09T10:58:11.935Z,33.06
2023-04-09T11:00:44.153Z,32.17
2023-04-09T11:03:30.479Z,32.46
2023-04-09T11:06:01.746Z,32.71
2023-04-09T11:08:30.332Z,33.12
2023-04-09T11:10:58.477Z,30.90
2023-04-09T11:13:25.053Z,31.17
2023-04-09T11:15:51.565Z,31.93
2023-04-09T11:18:24.924Z,32.98
2023-04-09T11:20:59.446Z,33.58
2023-04-09T11:23:26.926Z,33.28
2023-04-09T11:25:54.102Z,34.41
2023-04-09T11:28:20.998Z,32.70
2023-04-09T11:30:49.993Z,33.00
2023-04-09T11:33:19.150Z,33.02
2023-04-09T11:35:46.546Z,32.43
2023-04-09T11:38:13.116Z,31.92
2023-04-09T11:40:48.091Z,30.44
2023-04-09T11:43:20.992Z,30.16
2023-04-09T11:45:48.540Z,30.71
2023-04-09T11:48:18.134Z,29.22
2023-04-09T11:50:44.770Z,29.54
2023-04-09T11:53:21.998Z,30.69
2023-04-09T11:55:51.505Z,28.34
2023-04-09T11:58:18.308Z,28.24
2023-04-09T12:00:45.486Z,27.28
2023-04-09T12:03:12.277Z,28.59
2023-04-09T12:05:40.669Z,28.26
2023-04-09T12:08:08.821Z,29.99
2023-04-09T12:10:37.511Z,30.14
2023-04-09T12:13:06.966Z,28.66
2023-04-09T12:15:34.971Z,29.85
2023-04-09T12:18:01.860Z,30.61
2023-04-09T12:20:39.625Z,32.10
2023-04-09T12:23:07.296Z,30.78
2023-04-09T12:25:39.169Z,31.05
2023-04-09T12:28:07.286Z,33.12
2023-04-09T12:30:34.329Z,34.12
2023-04-09T12:33:01.447Z,32.43
2023-04-09T12:35:28.308Z,30.69
2023-04-09T12:37:54.829Z,31.27
2023-04-09T12:40:21.536Z,28.18
2023-04-09T12:42:48.332Z,28.70
2023-04-09T12:45:16.566Z,28.55
2023-04-09T12:47:43.769Z,27.17
2023-04-09T12:50:11.707Z,27.45
2023-04-09T12:52:38.570Z,26.19
2023-04-09T12:55:06.241Z,26.19
2023-04-09T12:57:33.009Z,26.77
2023-04-09T13:00:00.175Z,30.29
2023-04-09T13:02:26.905Z,28.48
2023-04-09T13:04:53.698Z,29.81
2023-04-09T13:07:20.545Z,30.25
2023-04-09T13:09:48.913Z,30.48
2023-04-09T13:12:16.228Z,31.15
2023-04-09T13:14:46.708Z,29.13
2023-04-09T13:17:13.434Z,27.66
2023-04-09T13:19:42.136Z,27.45
2023-04-09T13:22:09.416Z,27.36
2023-04-09T13:24:36.491Z,26.60
2023-04-09T13:27:07.000Z,27.63
2023-04-09T13:29:33.430Z,29.41
2023-04-09T13:32:02.719Z,29.56
2023-04-09T13:34:29.260Z,30.08
2023-04-09T13:36:55.760Z,30.33
2023-04-09T13:39:22.177Z,31.94
2023-04-09T13:41:48.719Z,32.92
2023-04-09T13:44:15.577Z,31.72
2023-04-09T13:46:42.139Z,31.66
2023-04-09T13:49:08.764Z,30.17
2023-04-09T13:51:35.202Z,29.21
2023-04-09T13:54:02.790Z,29.83
2023-04-09T13:56:31.318Z,29.88
2023-04-09T13:58:57.922Z,30.43
2023-04-09T14:01:26.193Z,30.12
2023-04-09T14:03:52.948Z,29.75
2023-04-09T14:06:19.769Z,29.38
2023-04-09T14:08:46.165Z,27.84
2023-04-09T14:11:14.964Z,28.74
2023-04-09T14:13:41.735Z,27.98
2023-04-09T14:16:09.130Z,27.55
2023-04-09T14:18:35.642Z,28.43
2023-04-09T14:21:02.171Z,29.66
2023-04-09T14:23:28.561Z,31.13
2023-04-09T14:25:54.987Z,31.01
2023-04-09T14:28:21.470Z,29.58
2023-04-09T14:30:48.456Z,30.03
2023-04-09T14:33:14.956Z,29.49
2023-04-09T14:35:41.371Z,28.55
2023-04-09T14:38:09.899Z,28.30
2023-04-09T14:40:36.600Z,28.13
2023-04-09T14:43:03.193Z,27.91
2023-04-09T14:45:30.869Z,28.72
2023-04-09T14:47:57.546Z,29.06
2023-04-09T14:50:24.109Z,30.92
2023-04-09T14:52:50.718Z,30.67
2023-04-09T14:55:17.169Z,29.46
2023-04-09T14:57:43.681Z,30.58
2023-04-09T15:00:11.965Z,31.37
2023-04-09T15:02:38.691Z,31.95
2023-04-09T15:05:05.753Z,32.49
2023-04-09T15:07:32.210Z,33.69
2023-04-09T15:10:01.827Z,33.08
2023-04-09T15:12:30.351Z,33.80
2023-04-09T15:14:57.374Z,33.05
2023-04-09T15:17:24.497Z,33.20
2023-04-09T15:19:52.957Z,33.29
2023-04-09T15:22:19.925Z,33.10
2023-04-09T15:24:46.370Z,33.58
2023-04-09T15:27:12.813Z,32.88
2023-04-09T15:29:39.261Z,33.47
2023-04-09T15:32:05.979Z,32.48
2023-04-09T15:34:32.776Z,31.73
2023-04-09T15:36:59.291Z,31.57
2023-04-09T15:39:28.302Z,32.08
2023-04-09T15:41:58.609Z,32.33
2023-04-09T15:44:25.994Z,32.75
2023-04-09T15:46:52.536Z,32.56
2023-04-09T15:49:19.667Z,34.62
2023-04-09T15:51:46.487Z,34.66
2023-04-09T15:54:13.050Z,34.37
2023-04-09T15:56:40.410Z,33.68
2023-04-09T15:59:08.317Z,33.82
2023-04-09T16:01:36.282Z,34.41
2023-04-09T16:04:03.930Z,34.10
2023-04-09T16:06:30.489Z,33.64
2023-04-09T16:08:57.135Z,33.82
2023-04-09T16:11:23.755Z,33.68
2023-04-09T16:13:50.540Z,34.19
2023-04-09T16:16:17.078Z,35.05
2023-04-09T16:18:43.708Z,34.79
2023-04-09T16:21:10.504Z,35.55
2023-04-09T16:23:37.089Z,36.31
2023-04-09T16:26:03.828Z,35.80
2023-04-09T16:28:30.451Z,35.20
2023-04-09T16:30:57.063Z,35.00
2023-04-09T16:33:23.807Z,34.57
2023-04-09T16:35:50.378Z,33.91
2023-04-09T16:38:16.830Z,34.27
2023-04-09T16:40:43.920Z,34.34
2023-04-09T16:43:10.354Z,34.06
2023-04-09T16:45:37.049Z,32.60
2023-04-09T16:48:06.171Z,33.19
2023-04-09T16:50:32.909Z,32.79
2023-04-09T16:53:01.010Z,32.76
2023-04-09T16:55:27.500Z,32.48
2023-04-09T16:57:55.935Z,31.98
2023-04-09T17:00:22.667Z,31.99
2023-04-09T17:02:49.611Z,32.58
2023-04-09T17:05:17.879Z,33.37
2023-04-09T17:07:44.550Z,33.49
2023-04-09T17:10:11.484Z,34.71
2023-04-09T17:12:38.180Z,34.94
2023-04-09T17:15:04.989Z,35.21
2023-04-09T17:17:31.451Z,35.27
2023-04-09T17:19:59.898Z,35.56
2023-04-09T17:22:26.307Z,35.25
2023-04-09T17:24:52.846Z,36.75
2023-04-09T17:27:19.690Z,35.77
2023-04-09T17:29:46.146Z,36.46
2023-04-09T17:32:12.542Z,36.82
2023-04-09T17:34:38.998Z,36.16
2023-04-09T17:37:05.387Z,36.43
2023-04-09T17:39:31.846Z,36.76
2023-04-09T17:42:00.549Z,36.15
2023-04-09T17:44:27.046Z,36.31
2023-04-09T17:46:53.885Z,35.82
2023-04-09T17:49:22.335Z,35.91
2023-04-09T17:51:48.948Z,35.69
2023-04-09T17:54:15.455Z,35.74
2023-04-09T17:56:41.902Z,35.98
2023-04-09T17:59:08.362Z,36.28
2023-04-09T18:01:34.986Z,37.00
2023-04-09T18:04:02.068Z,37.23
2023-04-09T18:06:29.229Z,36.97
2023-04-09T18:08:55.844Z,37.14
2023-04-09T18:11:23.543Z,38.04
2023-04-09T18:13:51.113Z,37.84
2023-04-09T18:16:19.410Z,38.38
2023-04-09T18:18:46.124Z,37.87
2023-04-09T18:21:12.534Z,38.35
2023-04-09T18:23:40.351Z,38.56
2023-04-09T18:26:07.763Z,38.26
2023-04-09T18:28:35.084Z,37.83
2023-04-09T18:31:02.021Z,37.97
2023-04-09T18:33:28.548Z,38.02
2023-04-09T18:35:55.156Z,38.02
2023-04-09T18:38:21.755Z,37.88
2023-04-09T18:40:48.213Z,37.59
2023-04-09T18:43:14.644Z,37.83
2023-04-09T18:45:41.335Z,38.11
2023-04-09T18:48:08.905Z,38.43
2023-04-09T18:50:36.100Z,38.96
2023-04-09T18:53:03.651Z,39.32
2023-04-09T18:55:30.749Z,39.79
2023-04-09T18:57:57.457Z,40.39
2023-04-09T19:00:24.088Z,40.73
2023-04-09T19:02:50.800Z,40.66
2023-04-09T19:05:17.494Z,40.38
2023-04-09T19:07:43.926Z,40.56
2023-04-09T19:10:10.807Z,41.19
2023-04-09T19:12:37.766Z,41.81
2023-04-09T19:15:04.955Z,43.04
2023-04-09T19:17:32.191Z,42.43
2023-04-09T19:19:58.681Z,42.66
2023-04-09T19:22:25.173Z,42.90
2023-04-09T19:24:51.710Z,42.84
2023-04-09T19:27:18.647Z,42.72
2023-04-09T19:29:46.584Z,43.07
2023-04-09T19:32:13.320Z,43.03
2023-04-09T19:34:39.814Z,43.17
2023-04-09T19:37:06.625Z,42.97
2023-04-09T19:39:33.141Z,42.85
2023-04-09T19:41:59.540Z,42.71
2023-04-09T19:44:26.095Z,43.23
2023-04-09T19:46:52.808Z,43.34
2023-04-09T19:49:19.470Z,43.29
2023-04-09T19:51:45.799Z,43.31
2023-04-09T19:54:12.267Z,43.23
2023-04-09T19:56:38.891Z,43.40
2023-04-09T19:59:05.413Z,43.19
2023-04-09T20:01:32.425Z,43.70
2023-04-09T20:03:59.350Z,43.36
2023-04-09T20:06:27.091Z,43.94
2023-04-09T20:08:54.262Z,44.89
2023-04-09T20:11:21.222Z,44.87
2023-04-09T20:13:48.004Z,44.13
2023-04-09T20:16:15.366Z,43.88
2023-04-09T20:18:41.770Z,44.10
2023-04-09T20:21:08.765Z,43.88
2023-04-09T20:23:35.410Z,44.24
2023-04-09T20:26:02.652Z,44.06
2023-04-09T20:28:29.692Z,44.20
2023-04-09T20:30:56.594Z,44.52
2023-04-09T20:33:23.142Z,44.57
2023-04-09T20:35:50.356Z,45.02
2023-04-09T20:38:20.461Z,45.14
2023-04-09T20:40:47.187Z,44.85
2023-04-09T20:43:13.788Z,45.25
2023-04-09T20:45:40.257Z,45.84
2023-04-09T20:48:06.780Z,46.18
2023-04-09T20:50:33.293Z,46.65
2023-04-09T20:52:59.687Z,46.18
2023-04-09T20:55:26.337Z,46.54
2023-04-09T20:57:56.420Z,46.79
2023-04-09T21:00:23.078Z,46.81
2023-04-09T21:02:49.842Z,46.88
2023-04-09T21:05:23.981Z,46.98
2023-04-09T21:07:52.339Z,46.76
2023-04-09T21:10:18.795Z,46.87
2023-04-09T21:12:45.233Z,47.40
2023-04-09T21:15:11.604Z,47.63
2023-04-09T21:17:38.135Z,46.88
2023-04-09T21:20:04.963Z,47.14
2023-04-09T21:22:31.941Z,47.50
2023-04-09T21:24:58.372Z,47.72
2023-04-09T21:27:24.784Z,47.81
2023-04-09T21:29:51.214Z,47.06
2023-04-09T21:32:17.645Z,46.99
2023-04-09T21:34:44.120Z,46.63
2023-04-09T21:37:10.995Z,47.47
2023-04-09T21:39:38.531Z,46.88
2023-04-09T21:42:06.355Z,47.06
2023-04-09T21:44:33.701Z,47.57
2023-04-09T21:47:01.483Z,48.65
2023-04-09T21:49:27.815Z,48.44
2023-04-09T21:51:55.633Z,48.22
2023-04-09T21:54:21.954Z,48.28
2023-04-09T21:56:48.428Z,48.16
2023-04-09T21:59:14.857Z,47.76
2023-04-09T22:01:41.271Z,47.76
2023-04-09T22:04:07.823Z,48.09
2023-04-09T22:06:34.318Z,48.58
2023-04-09T22:09:01.693Z,48.71
2023-04-09T22:11:28.781Z,48.27
2023-04-09T22:13:58.589Z,48.37
2023-04-09T22:16:26.131Z,48.65
2023-04-09T22:18:53.886Z,48.81
2023-04-09T22:21:20.751Z,48.86
2023-04-09T22:23:47.393Z,49.28
2023-04-09T22:26:13.853Z,49.73
2023-04-09T22:28:40.342Z,49.78
2023-04-09T22:31:07.106Z,49.44
2023-04-09T22:33:33.606Z,49.23
2023-04-09T22:36:00.218Z,49.47
2023-04-09T22:38:26.967Z,49.35
2023-04-09T22:40:53.666Z,49.05
2023-04-09T22:43:20.085Z,49.02
2023-04-09T22:46:04.906Z,49.13
2023-04-09T22:48:33.884Z,49.28
2023-04-09T22:51:00.543Z,49.72
2023-04-09T22:53:26.958Z,49.41
2023-04-09T22:55:54.739Z,49.26
2023-04-09T22:58:21.207Z,49.38
2023-04-09T23:00:47.705Z,49.57
2023-04-09T23:03:14.536Z,49.76
2023-04-09T23:05:41.388Z,49.90
2023-04-09T23:08:07.818Z,50.47
2023-04-09T23:10:34.453Z,50.12
2023-04-09T23:13:01.085Z,50.09
2023-04-09T23:15:28.344Z,49.95
2023-04-09T23:17:54.981Z,50.46
2023-04-09T23:20:21.562Z,50.65
2023-04-09T23:22:48.640Z,50.83
2023-04-09T23:25:16.336Z,51.71
2023-04-09T23:27:42.795Z,51.53
2023-04-09T23:30:10.261Z,52.05
2023-04-09T23:32:36.925Z,52.11
2023-04-09T23:35:04.144Z,52.41
2023-04-09T23:37:31.043Z,51.98
2023-04-09T23:39:57.450Z,52.46
2023-04-09T23:42:24.015Z,53.06
2023-04-09T23:44:50.474Z,52.58
2023-04-09T23:47:17.347Z,52.99
2023-04-09T23:49:43.896Z,53.55
2023-04-09T23:52:10.513Z,53.12
2023-04-09T23:54:36.965Z,53.14
2023-04-09T23:57:03.654Z,53.69
2023-04-09T23:59:33.790Z,54.30
